General Aviation Weather

Text Reports

Enter one or more of the following location identifiers separated by a space:

Zip Code, Four-Character ICAO or Three-Character IATA airport codes.

METAR - Aviation Routine Weather Report
KHAO - Hamilton, Ohio
Updated at 2:53 PM GMT on July 30, 2014 (10:53 AM EDT):
METAR KHAO 301453Z AUTO VRB04KT 10SM CLR 23/17 A3007 RMK AO2 SLP181 T02280167 50000
TAF - Terminal Area Forecast
KHAO - Hamilton, Ohio
Updated at 2:53 PM GMT on July 30, 2014 (10:53 AM EDT):
No TAF is currently available for this location.
Decoded:
No decoded TAF is available.
PIREP - Pilot Weather Report
KHAO - Hamilton, Ohio
Updated at 2:53 PM GMT on July 30, 2014 (10:53 AM EDT):
No PIREP is currently available for this location.
AIRMET - Airmens Meteorological Information
KHAO - Hamilton, Ohio
Updated at 2:53 PM GMT on July 30, 2014 (10:53 AM EDT):
No AIRMET is currently available for this location.
SIGMET - Significant Meteorological Information
KHAO - Hamilton, Ohio
Updated at 2:53 PM GMT on July 30, 2014 (10:53 AM EDT):
No SIGMET is currently available for this location.
NOTAM - Notice to Airmen
KHAO - Hamilton, Ohio
Updated at 2:53 PM GMT on July 30, 2014 (10:53 AM EDT):
No NOTAM is currently available for this location.
Forecast Area
KHAO - Hamilton, Ohio
Updated at 2:53 PM GMT on July 30, 2014 (10:53 AM EDT):
No NOTAM is currently available for this location.
Aviation Weather Maps